Portada
METAR-TAF:

METAR-TAF

Aeropuertos :

Aeropuerto de Aviñón-Provenza

Aviñón, Francia

latitud: 43-54-26N, longitud: 004-54-07E, altitud: 38 m

Observación

El informe se hizo hace 21 minutos, a las 07:00 UTC
Viento 21 kt del norte-noroeste con ráfagas de 34 kt, variando entre noroeste y norte-noreste
Temperatura 21°C
Humedad 53%
Presión 1008 hPa
Visibilidad 10 km o más
sin nubes por debajo de 1500 m y sin presencia de cumulonimbus.

METAR: LFMV 270700Z AUTO 34021G34KT 320V020 CAVOK 21/11 Q1008 NOSIG

Hora: 09:21 (07:21 UTC)

Pronóstico

El informe se hizo hace 5 horas y 21 minutos, a las 02:00 UTC
Pronóstico válido del 27 a las 03 UTC al 28 a las 03 UTC
Viento 20 kt del norte-noroeste con ráfagas de 30 kt
Visibilidad 10 km o más
sin nubes por debajo de 1500 m y sin presencia de cumulonimbus.
Evolucionando progresivamente
del 27 a las 20 UTC al 27 a las 21 UTC
Viento 10 kt del noroeste

TAF: LFMV 270200Z 2703/2803 34020G30KT CAVOK BECMG 2720/2721 31010KT

Observaciones y pronósticos meteorológicos de más de 4000 aeropuertos (mensajes METAR y TAF).

Los puntos amarillos y rojos representan las estaciones disponibles.

Ponga el ratón en el punto deseado para ver el nombre de la estación.

Haga clic para ver las observaciones y los pronósticos meteorológicos.

Para cambiar el mapa : haga clic en los botones verdes con una cruz de color negro para hacer un zoom, en el botón verde con un guión para alejar o en las flechas verdes para mapas adyacentes.


METAR-TAF: